Nixe — ECGW — position and weather

sailwx.info

Track history (hours):
 
Tides and Currents Weather Stations Pressure Air Temp Water Temp Dewpoint Dewpoint Depression Visibility Wind Speed Wind Dir Waves Ship Positions

Nixe

Last reported at 2017-Sep-28 08:16 UTC. Time now 2017-Oct-16 22:35 UTC.
Position N 39°57' E 003°40'.
Warning: this ship's position is 18 days out of date.

Length 63 m; draft 2 m.

Type: Passenger vessel. MMSI: 224264000.

Date/timePositionNaut miles runAvg speedWind from/ knotsBaromVisibWave heightAir tempDewpointWater temp
2017-Sep-28 08:16N 39°57' E 003°40'922.4
2017-Sep-28 07:53N 39°54' E 003°30'922.4
2017-Sep-28 07:30N 39°52' E 003°19'8 0.6
2017-Sep-27 18:25N 39°50' E 003°08'820.0
2017-Sep-27 18:00N 39°51' E 003°19'1423.0
2017-Sep-27 17:23N 39°56' E 003°37'1122.1
2017-Sep-27 16:54N 39°59' E 003°50'0 0.1
2017-Sep-27 15:19N 39°59' E 003°50'1020.7
2017-Sep-27 14:50N 39°56' E 003°38'824.4
2017-Sep-27 14:30N 39°53' E 003°28'1224.4
2017-Sep-27 14:00N 39°50' E 003°12'3 4.9
2017-Sep-27 13:24N 39°50' E 003°08'4 9.0
2017-Sep-27 12:57N 39°50' E 003°14'1123.8
2017-Sep-27 12:29N 39°54' E 003°27'1812.7
2017-Sep-27 11:04N 39°59' E 003°50'0 0.0
2017-Sep-27 10:53N 39°59' E 003°50'0 0.0
2017-Sep-27 09:08N 39°59' E 003°50'1010.1
2017-Sep-27 08:07N 39°56' E 003°37'423.1
2017-Sep-27 07:57N 39°55' E 003°32'1023.4
2017-Sep-27 07:30N 39°51' E 003°19'9 0.7
2017-Sep-26 18:22N 39°50' E 003°08'719.6
2017-Sep-26 18:00N 39°50' E 003°18'2619.4
2017-Sep-26 16:39N 39°59' E 003°50'0 0.0
2017-Sep-26 15:26N 39°59' E 003°50'1018.6
2017-Sep-26 14:56N 39°54' E 003°39'922.2
2017-Sep-26 14:30N 39°52' E 003°27'1122.5
2017-Sep-26 14:00N 39°50' E 003°13'3 4.8
2017-Sep-26 13:18N 39°50' E 003°08'518.2
2017-Sep-26 13:00N 39°50' E 003°16'14 2.7
2017-Sep-26 07:55N 39°53' E 003°33'921.1
2017-Sep-26 07:30N 39°51' E 003°22'11 0.8
2017-Sep-25 18:26N 39°50' E 003°08'819.4
2017-Sep-25 18:00N 39°52' E 003°19'16 5.2
2017-Sep-25 14:57N 39°57' E 003°38'1224.8
2017-Sep-25 14:28N 39°53' E 003°24'1223.6
2017-Sep-25 13:59N 39°50' E 003°09'1 1.0
2017-Sep-25 13:21N 39°50' E 003°08'618.1
2017-Sep-25 13:00N 39°51' E 003°17'2718.0
2017-Sep-25 11:32N 39°59' E 003°50'0 0.0
2017-Sep-25 11:13N 39°59' E 003°50'0 0.0
2017-Sep-25 10:35N 39°59' E 003°50'0 0.0
2017-Sep-25 10:29N 39°59' E 003°50'0 0.0
2017-Sep-25 09:59N 39°59' E 003°50'0 0.0
2017-Sep-25 09:30N 39°59' E 003°50'0 0.0
2017-Sep-25 08:55N 39°59' E 003°50'0 0.0
2017-Sep-25 08:26N 39°59' E 003°50'1220.4
2017-Sep-25 07:51N 39°56' E 003°35'824.4
2017-Sep-25 07:30N 39°53' E 003°24'1223.7
2017-Sep-25 07:00N 39°50' E 003°10'1 0.1
2017-Sep-24 21:23N 39°50' E 003°08'718.6
2017-Sep-24 21:00N 39°51' E 003°17'2622.4
2017-Sep-24 19:50N 39°59' E 003°50'0 0.1
2017-Sep-24 19:26N 39°59' E 003°50'0 0.0
2017-Sep-24 18:59N 39°59' E 003°50'1015.3
2017-Sep-24 18:20N 39°56' E 003°37'823.9
2017-Sep-24 17:59N 39°54' E 003°27'1123.6
2017-Sep-24 17:30N 39°50' E 003°13'3 4.6
2017-Sep-24 16:46N 39°50' E 003°08'0 0.2
2017-Sep-24 16:27N 39°50' E 003°08'818.5
2017-Sep-24 16:00N 39°52' E 003°19'2518.4
2017-Sep-24 14:40N 39°59' E 003°50'9 4.8
2017-Sep-24 12:50N 39°57' E 003°39'1725.4
2017-Sep-24 12:09N 39°51' E 003°17'424.5
2017-Sep-24 12:00N 39°50' E 003°13'3 4.5
2017-Sep-24 11:18N 39°50' E 003°08'618.9
2017-Sep-24 11:00N 39°51' E 003°16'1324.3
2017-Sep-24 10:29N 39°55' E 003°31'8 3.3
2017-Sep-24 08:03N 39°57' E 003°41'626.1
2017-Sep-24 07:49N 39°56' E 003°34'825.9
2017-Sep-24 07:30N 39°53' E 003°23'1223.9
2017-Sep-24 07:00N 39°50' E 003°08'  
2017-Sep-21 18:23N 39°50' E 003°08'820.9
2017-Sep-21 18:01N 39°52' E 003°18'7 2.0
2017-Sep-21 14:40N 39°54' E 003°26'424.5
2017-Sep-21 14:30N 39°53' E 003°21'10 9.0
2017-Sep-21 13:22N 39°50' E 003°09'718.4
2017-Sep-21 13:00N 39°51' E 003°17'2 0.3
2017-Sep-21 07:14N 39°51' E 003°15'5 0.4
2017-Sep-20 18:23N 39°50' E 003°08'719.2
2017-Sep-20 18:00N 39°51' E 003°18'23 8.8
2017-Sep-20 15:20N 39°58' E 003°47'1222.0
2017-Sep-20 14:47N 39°54' E 003°32'1722.1
2017-Sep-20 14:00N 39°50' E 003°10'1 2.0
2017-Sep-20 13:19N 39°50' E 003°08'619.0
2017-Sep-20 13:00N 39°51' E 003°16'15 3.0
2017-Sep-20 07:50N 39°52' E 003°36'822.5
2017-Sep-20 07:30N 39°51' E 003°26'1122.5
2017-Sep-20 07:00N 39°50' E 003°12'3 0.2
2017-Sep-19 18:22N 39°50' E 003°08'718.9
2017-Sep-19 18:00N 39°50' E 003°17'24 8.4
2017-Sep-19 15:09N 39°57' E 003°47'422.7
2017-Sep-19 14:58N 39°56' E 003°42'1122.7
2017-Sep-19 14:28N 39°53' E 003°28'1123.1
2017-Sep-19 14:00N 39°50' E 003°15'5 8.8
2017-Sep-19 13:28N 39°50' E 003°08'4 8.9
2017-Sep-19 13:00N 39°51' E 003°14'27 5.9
2017-Sep-19 08:22N 39°57' E 003°48'1022.3
2017-Sep-19 07:54N 39°53' E 003°36'923.1
2017-Sep-19 07:30N 39°52' E 003°24'1122.3
2017-Sep-19 07:00N 39°50' E 003°10'1 0.1
2017-Sep-18 18:21N 39°50' E 003°08'718.8
2017-Sep-18 18:00N 39°50' E 003°17'24 8.4
2017-Sep-18 15:09N 39°58' E 003°46'421.9
2017-Sep-18 14:58N 39°57' E 003°41'1022.3
2017-Sep-18 14:31N 39°53' E 003°29'1223.5
2017-Sep-18 14:00N 39°50' E 003°14'4 5.7
2017-Sep-18 13:16N 39°50' E 003°08'417.5
2017-Sep-18 13:00N 39°50' E 003°14'  
Track history (hours):
 
Tides and Currents Weather Stations Pressure Air Temp Water Temp Dewpoint Dewpoint Depression Visibility Wind Speed Wind Dir Waves Ship Positions

Nixe

Last reported at 2017-Sep-28 08:16 UTC. Time now 2017-Oct-16 22:35 UTC.
Position N 39°57' E 003°40'.
Warning: this ship's position is 18 days out of date.

Length 63 m; draft 2 m.

Type: Passenger vessel. MMSI: 224264000.

Date/timePositionNaut miles runAvg speedWind from/ knotsBaromVisibWave heightAir tempDewpointWater temp
2017-Sep-28 08:16N 39°57' E 003°40'922.4
2017-Sep-28 07:53N 39°54' E 003°30'922.4
2017-Sep-28 07:30N 39°52' E 003°19'8 0.6
2017-Sep-27 18:25N 39°50' E 003°08'820.0
2017-Sep-27 18:00N 39°51' E 003°19'1423.0
2017-Sep-27 17:23N 39°56' E 003°37'1122.1
2017-Sep-27 16:54N 39°59' E 003°50'0 0.1
2017-Sep-27 15:19N 39°59' E 003°50'1020.7
2017-Sep-27 14:50N 39°56' E 003°38'824.4
2017-Sep-27 14:30N 39°53' E 003°28'1224.4
2017-Sep-27 14:00N 39°50' E 003°12'3 4.9
2017-Sep-27 13:24N 39°50' E 003°08'4 9.0
2017-Sep-27 12:57N 39°50' E 003°14'1123.8
2017-Sep-27 12:29N 39°54' E 003°27'1812.7
2017-Sep-27 11:04N 39°59' E 003°50'0 0.0
2017-Sep-27 10:53N 39°59' E 003°50'0 0.0
2017-Sep-27 09:08N 39°59' E 003°50'1010.1
2017-Sep-27 08:07N 39°56' E 003°37'423.1
2017-Sep-27 07:57N 39°55' E 003°32'1023.4
2017-Sep-27 07:30N 39°51' E 003°19'9 0.7
2017-Sep-26 18:22N 39°50' E 003°08'719.6
2017-Sep-26 18:00N 39°50' E 003°18'2619.4
2017-Sep-26 16:39N 39°59' E 003°50'0 0.0
2017-Sep-26 15:26N 39°59' E 003°50'1018.6
2017-Sep-26 14:56N 39°54' E 003°39'922.2
2017-Sep-26 14:30N 39°52' E 003°27'1122.5
2017-Sep-26 14:00N 39°50' E 003°13'3 4.8
2017-Sep-26 13:18N 39°50' E 003°08'518.2
2017-Sep-26 13:00N 39°50' E 003°16'14 2.7
2017-Sep-26 07:55N 39°53' E 003°33'921.1
2017-Sep-26 07:30N 39°51' E 003°22'11 0.8
2017-Sep-25 18:26N 39°50' E 003°08'819.4
2017-Sep-25 18:00N 39°52' E 003°19'16 5.2
2017-Sep-25 14:57N 39°57' E 003°38'1224.8
2017-Sep-25 14:28N 39°53' E 003°24'1223.6
2017-Sep-25 13:59N 39°50' E 003°09'1 1.0
2017-Sep-25 13:21N 39°50' E 003°08'618.1
2017-Sep-25 13:00N 39°51' E 003°17'2718.0
2017-Sep-25 11:32N 39°59' E 003°50'0 0.0
2017-Sep-25 11:13N 39°59' E 003°50'0 0.0
2017-Sep-25 10:35N 39°59' E 003°50'0 0.0
2017-Sep-25 10:29N 39°59' E 003°50'0 0.0
2017-Sep-25 09:59N 39°59' E 003°50'0 0.0
2017-Sep-25 09:30N 39°59' E 003°50'0 0.0
2017-Sep-25 08:55N 39°59' E 003°50'0 0.0
2017-Sep-25 08:26N 39°59' E 003°50'1220.4
2017-Sep-25 07:51N 39°56' E 003°35'824.4
2017-Sep-25 07:30N 39°53' E 003°24'1223.7
2017-Sep-25 07:00N 39°50' E 003°10'1 0.1
2017-Sep-24 21:23N 39°50' E 003°08'718.6
2017-Sep-24 21:00N 39°51' E 003°17'2622.4
2017-Sep-24 19:50N 39°59' E 003°50'0 0.1
2017-Sep-24 19:26N 39°59' E 003°50'0 0.0
2017-Sep-24 18:59N 39°59' E 003°50'1015.3
2017-Sep-24 18:20N 39°56' E 003°37'823.9
2017-Sep-24 17:59N 39°54' E 003°27'1123.6
2017-Sep-24 17:30N 39°50' E 003°13'3 4.6
2017-Sep-24 16:46N 39°50' E 003°08'0 0.2
2017-Sep-24 16:27N 39°50' E 003°08'818.5
2017-Sep-24 16:00N 39°52' E 003°19'2518.4
2017-Sep-24 14:40N 39°59' E 003°50'9 4.8
2017-Sep-24 12:50N 39°57' E 003°39'1725.4
2017-Sep-24 12:09N 39°51' E 003°17'424.5
2017-Sep-24 12:00N 39°50' E 003°13'3 4.5
2017-Sep-24 11:18N 39°50' E 003°08'618.9
2017-Sep-24 11:00N 39°51' E 003°16'1324.3
2017-Sep-24 10:29N 39°55' E 003°31'8 3.3
2017-Sep-24 08:03N 39°57' E 003°41'626.1
2017-Sep-24 07:49N 39°56' E 003°34'825.9
2017-Sep-24 07:30N 39°53' E 003°23'1223.9
2017-Sep-24 07:00N 39°50' E 003°08'  
2017-Sep-21 18:23N 39°50' E 003°08'820.9
2017-Sep-21 18:01N 39°52' E 003°18'7 2.0
2017-Sep-21 14:40N 39°54' E 003°26'424.5
2017-Sep-21 14:30N 39°53' E 003°21'10 9.0
2017-Sep-21 13:22N 39°50' E 003°09'718.4
2017-Sep-21 13:00N 39°51' E 003°17'2 0.3
2017-Sep-21 07:14N 39°51' E 003°15'5 0.4
2017-Sep-20 18:23N 39°50' E 003°08'719.2
2017-Sep-20 18:00N 39°51' E 003°18'23 8.8
2017-Sep-20 15:20N 39°58' E 003°47'1222.0
2017-Sep-20 14:47N 39°54' E 003°32'1722.1
2017-Sep-20 14:00N 39°50' E 003°10'1 2.0
2017-Sep-20 13:19N 39°50' E 003°08'619.0
2017-Sep-20 13:00N 39°51' E 003°16'15 3.0
2017-Sep-20 07:50N 39°52' E 003°36'822.5
2017-Sep-20 07:30N 39°51' E 003°26'1122.5
2017-Sep-20 07:00N 39°50' E 003°12'3 0.2
2017-Sep-19 18:22N 39°50' E 003°08'718.9
2017-Sep-19 18:00N 39°50' E 003°17'24 8.4
2017-Sep-19 15:09N 39°57' E 003°47'422.7
2017-Sep-19 14:58N 39°56' E 003°42'1122.7
2017-Sep-19 14:28N 39°53' E 003°28'1123.1
2017-Sep-19 14:00N 39°50' E 003°15'5 8.8
2017-Sep-19 13:28N 39°50' E 003°08'4 8.9
2017-Sep-19 13:00N 39°51' E 003°14'27 5.9
2017-Sep-19 08:22N 39°57' E 003°48'1022.3
2017-Sep-19 07:54N 39°53' E 003°36'923.1
2017-Sep-19 07:30N 39°52' E 003°24'1122.3
2017-Sep-19 07:00N 39°50' E 003°10'1 0.1
2017-Sep-18 18:21N 39°50' E 003°08'718.8
2017-Sep-18 18:00N 39°50' E 003°17'24 8.4
2017-Sep-18 15:09N 39°58' E 003°46'421.9
2017-Sep-18 14:58N 39°57' E 003°41'1022.3
2017-Sep-18 14:31N 39°53' E 003°29'1223.5
2017-Sep-18 14:00N 39°50' E 003°14'4 5.7
2017-Sep-18 13:16N 39°50' E 003°08'417.5
2017-Sep-18 13:00N 39°50' E 003°14'  

Dump ship's entire track history